sensor_id;sensor_type;location;lat;lon;timestamp;temperature;humidity
66312;HTU21D;53114;51.138;6.008;2023-11-19T00:02:19;13.32;118.99
66312;HTU21D;53114;51.138;6.008;2023-11-19T00:04:45;13.33;118.99
66312;HTU21D;53114;51.138;6.008;2023-11-19T00:07:11;13.34;118.99
66312;HTU21D;53114;51.138;6.008;2023-11-19T00:09:38;13.33;118.99
66312;HTU21D;53114;51.138;6.008;2023-11-19T00:12:06;13.30;118.99
66312;HTU21D;53114;51.138;6.008;2023-11-19T00:14:33;13.35;118.99
66312;HTU21D;53114;51.138;6.008;2023-11-19T00:16:59;13.35;118.99
66312;HTU21D;53114;51.138;6.008;2023-11-19T00:19:25;13.35;118.99
66312;HTU21D;53114;51.138;6.008;2023-11-19T00:21:52;13.33;118.99
66312;HTU21D;53114;51.138;6.008;2023-11-19T00:24:18;13.34;118.99
66312;HTU21D;53114;51.138;6.008;2023-11-19T00:26:44;13.34;118.99
66312;HTU21D;53114;51.138;6.008;2023-11-19T00:29:10;13.31;118.99
66312;HTU21D;53114;51.138;6.008;2023-11-19T00:31:36;13.34;118.99
66312;HTU21D;53114;51.138;6.008;2023-11-19T00:34:02;13.33;118.99
66312;HTU21D;53114;51.138;6.008;2023-11-19T00:36:28;13.34;118.99
66312;HTU21D;53114;51.138;6.008;2023-11-19T00:38:54;13.31;118.99
66312;HTU21D;53114;51.138;6.008;2023-11-19T00:41:20;13.32;118.99
66312;HTU21D;53114;51.138;6.008;2023-11-19T00:43:48;13.34;118.99
66312;HTU21D;53114;51.138;6.008;2023-11-19T00:46:15;13.36;118.99
66312;HTU21D;53114;51.138;6.008;2023-11-19T00:48:42;13.38;118.99
66312;HTU21D;53114;51.138;6.008;2023-11-19T00:51:08;13.39;118.99
66312;HTU21D;53114;51.138;6.008;2023-11-19T00:53:34;13.44;118.99
66312;HTU21D;53114;51.138;6.008;2023-11-19T00:56:00;13.44;118.99
66312;HTU21D;53114;51.138;6.008;2023-11-19T00:58:26;13.46;118.99
66312;HTU21D;53114;51.138;6.008;2023-11-19T01:00:52;13.50;118.99
66312;HTU21D;53114;51.138;6.008;2023-11-19T01:03:18;13.49;118.99
66312;HTU21D;53114;51.138;6.008;2023-11-19T01:05:44;13.52;118.99
66312;HTU21D;53114;51.138;6.008;2023-11-19T01:08:12;13.51;118.99
66312;HTU21D;53114;51.138;6.008;2023-11-19T01:10:38;13.52;118.99
66312;HTU21D;53114;51.138;6.008;2023-11-19T01:13:04;13.44;118.99
66312;HTU21D;53114;51.138;6.008;2023-11-19T01:15:32;13.44;118.99
66312;HTU21D;53114;51.138;6.008;2023-11-19T01:17:58;13.43;118.99
66312;HTU21D;53114;51.138;6.008;2023-11-19T01:20:24;13.40;118.99
66312;HTU21D;53114;51.138;6.008;2023-11-19T01:22:51;13.38;118.99
66312;HTU21D;53114;51.138;6.008;2023-11-19T01:25:18;13.40;118.99
66312;HTU21D;53114;51.138;6.008;2023-11-19T01:27:44;13.43;118.99
66312;HTU21D;53114;51.138;6.008;2023-11-19T01:30:10;13.46;118.99
66312;HTU21D;53114;51.138;6.008;2023-11-19T01:32:39;13.49;118.99
66312;HTU21D;53114;51.138;6.008;2023-11-19T01:35:06;13.54;118.99
66312;HTU21D;53114;51.138;6.008;2023-11-19T01:37:33;13.59;118.99
66312;HTU21D;53114;51.138;6.008;2023-11-19T01:40:01;13.62;118.99
66312;HTU21D;53114;51.138;6.008;2023-11-19T01:42:28;13.65;118.99
66312;HTU21D;53114;51.138;6.008;2023-11-19T01:44:58;13.66;118.99
66312;HTU21D;53114;51.138;6.008;2023-11-19T01:47:30;13.70;118.99
66312;HTU21D;53114;51.138;6.008;2023-11-19T01:49:57;13.74;118.99
66312;HTU21D;53114;51.138;6.008;2023-11-19T01:52:25;13.78;118.99
66312;HTU21D;53114;51.138;6.008;2023-11-19T01:54:53;13.78;118.99
66312;HTU21D;53114;51.138;6.008;2023-11-19T01:57:22;13.80;118.99
66312;HTU21D;53114;51.138;6.008;2023-11-19T01:59:50;13.81;118.99
66312;HTU21D;53114;51.138;6.008;2023-11-19T02:02:18;13.80;118.99
66312;HTU21D;53114;51.138;6.008;2023-11-19T02:04:50;13.78;118.99
66312;HTU21D;53114;51.138;6.008;2023-11-19T02:07:18;13.76;118.99
66312;HTU21D;53114;51.138;6.008;2023-11-19T02:09:44;13.75;118.99
66312;HTU21D;53114;51.138;6.008;2023-11-19T02:12:11;13.73;118.99
66312;HTU21D;53114;51.138;6.008;2023-11-19T02:14:37;13.73;118.99
66312;HTU21D;53114;51.138;6.008;2023-11-19T02:17:04;13.71;118.99
66312;HTU21D;53114;51.138;6.008;2023-11-19T02:19:30;13.76;118.99
66312;HTU21D;53114;51.138;6.008;2023-11-19T02:21:56;13.81;118.99
66312;HTU21D;53114;51.138;6.008;2023-11-19T02:24:27;13.85;118.99
66312;HTU21D;53114;51.138;6.008;2023-11-19T02:27:10;13.85;118.99
66312;HTU21D;53114;51.138;6.008;2023-11-19T02:29:38;13.88;118.99
66312;HTU21D;53114;51.138;6.008;2023-11-19T02:32:05;13.90;118.99
66312;HTU21D;53114;51.138;6.008;2023-11-19T02:34:35;13.90;118.99
66312;HTU21D;53114;51.138;6.008;2023-11-19T02:37:01;13.90;118.99
66312;HTU21D;53114;51.138;6.008;2023-11-19T02:39:27;13.92;118.99
66312;HTU21D;53114;51.138;6.008;2023-11-19T02:41:53;13.90;118.99
66312;HTU21D;53114;51.138;6.008;2023-11-19T02:44:19;13.89;118.99
66312;HTU21D;53114;51.138;6.008;2023-11-19T02:46:45;13.92;118.99
66312;HTU21D;53114;51.138;6.008;2023-11-19T02:49:14;13.93;118.99
66312;HTU21D;53114;51.138;6.008;2023-11-19T02:51:41;13.92;118.99
66312;HTU21D;53114;51.138;6.008;2023-11-19T02:54:06;13.86;118.99
66312;HTU21D;53114;51.138;6.008;2023-11-19T02:56:32;13.81;118.99
66312;HTU21D;53114;51.138;6.008;2023-11-19T02:59:02;13.81;118.99
66312;HTU21D;53114;51.138;6.008;2023-11-19T03:01:40;13.79;118.99
66312;HTU21D;53114;51.138;6.008;2023-11-19T03:04:09;13.76;118.99
66312;HTU21D;53114;51.138;6.008;2023-11-19T03:06:37;13.79;118.99
66312;HTU21D;53114;51.138;6.008;2023-11-19T03:09:04;13.76;118.99
66312;HTU21D;53114;51.138;6.008;2023-11-19T03:11:36;13.71;118.99
66312;HTU21D;53114;51.138;6.008;2023-11-19T03:14:02;13.68;118.99
66312;HTU21D;53114;51.138;6.008;2023-11-19T03:16:29;13.64;118.99
66312;HTU21D;53114;51.138;6.008;2023-11-19T03:19:00;13.59;118.99
66312;HTU21D;53114;51.138;6.008;2023-11-19T03:21:29;13.55;118.99
66312;HTU21D;53114;51.138;6.008;2023-11-19T03:23:57;13.52;118.99
66312;HTU21D;53114;51.138;6.008;2023-11-19T03:26:29;13.51;118.99
66312;HTU21D;53114;51.138;6.008;2023-11-19T03:28:55;13.49;118.99
66312;HTU21D;53114;51.138;6.008;2023-11-19T03:31:22;13.50;118.99
66312;HTU21D;53114;51.138;6.008;2023-11-19T03:33:48;13.47;118.99
66312;HTU21D;53114;51.138;6.008;2023-11-19T03:36:14;13.41;118.99
66312;HTU21D;53114;51.138;6.008;2023-11-19T03:38:40;13.35;118.99
66312;HTU21D;53114;51.138;6.008;2023-11-19T03:41:12;13.30;118.99
66312;HTU21D;53114;51.138;6.008;2023-11-19T03:43:39;13.26;118.99
66312;HTU21D;53114;51.138;6.008;2023-11-19T03:46:18;13.25;118.99
66312;HTU21D;53114;51.138;6.008;2023-11-19T03:48:46;13.23;118.99
66312;HTU21D;53114;51.138;6.008;2023-11-19T03:51:12;13.21;118.99
66312;HTU21D;53114;51.138;6.008;2023-11-19T03:53:42;13.20;118.99
66312;HTU21D;53114;51.138;6.008;2023-11-19T03:56:09;13.15;118.99
66312;HTU21D;53114;51.138;6.008;2023-11-19T03:58:36;13.14;118.99
66312;HTU21D;53114;51.138;6.008;2023-11-19T04:01:01;13.11;118.99
66312;HTU21D;53114;51.138;6.008;2023-11-19T04:03:30;13.09;118.99
66312;HTU21D;53114;51.138;6.008;2023-11-19T04:05:56;13.10;118.99
66312;HTU21D;53114;51.138;6.008;2023-11-19T04:08:22;13.09;118.99
66312;HTU21D;53114;51.138;6.008;2023-11-19T04:10:48;13.09;118.99
66312;HTU21D;53114;51.138;6.008;2023-11-19T04:13:14;13.09;118.99
66312;HTU21D;53114;51.138;6.008;2023-11-19T04:15:40;13.15;118.99
66312;HTU21D;53114;51.138;6.008;2023-11-19T04:18:06;13.24;118.99
66312;HTU21D;53114;51.138;6.008;2023-11-19T04:20:32;13.32;118.99
66312;HTU21D;53114;51.138;6.008;2023-11-19T04:22:58;13.33;118.99
66312;HTU21D;53114;51.138;6.008;2023-11-19T04:25:26;13.30;118.99
66312;HTU21D;53114;51.138;6.008;2023-11-19T04:27:52;13.24;118.99
66312;HTU21D;53114;51.138;6.008;2023-11-19T04:30:18;13.21;118.99
66312;HTU21D;53114;51.138;6.008;2023-11-19T04:32:44;13.20;118.99
66312;HTU21D;53114;51.138;6.008;2023-11-19T04:35:10;13.18;118.99
66312;HTU21D;53114;51.138;6.008;2023-11-19T04:37:37;13.18;118.99
66312;HTU21D;53114;51.138;6.008;2023-11-19T04:40:03;13.12;118.99
66312;HTU21D;53114;51.138;6.008;2023-11-19T04:42:31;13.12;118.99
66312;HTU21D;53114;51.138;6.008;2023-11-19T04:44:58;13.11;118.99
66312;HTU21D;53114;51.138;6.008;2023-11-19T04:47:23;13.04;118.99
66312;HTU21D;53114;51.138;6.008;2023-11-19T04:49:49;13.11;118.99
66312;HTU21D;53114;51.138;6.008;2023-11-19T04:52:15;13.16;118.99
66312;HTU21D;53114;51.138;6.008;2023-11-19T04:54:42;13.21;118.99
66312;HTU21D;53114;51.138;6.008;2023-11-19T04:57:11;13.25;118.99
66312;HTU21D;53114;51.138;6.008;2023-11-19T04:59:38;13.24;118.99
66312;HTU21D;53114;51.138;6.008;2023-11-19T05:02:04;13.23;118.99
66312;HTU21D;53114;51.138;6.008;2023-11-19T05:04:31;13.21;118.99
66312;HTU21D;53114;51.138;6.008;2023-11-19T05:06:57;13.21;118.99
66312;HTU21D;53114;51.138;6.008;2023-11-19T05:09:23;13.16;118.99
66312;HTU21D;53114;51.138;6.008;2023-11-19T05:11:49;13.18;118.99
66312;HTU21D;53114;51.138;6.008;2023-11-19T05:14:14;13.19;118.99
66312;HTU21D;53114;51.138;6.008;2023-11-19T05:16:41;13.20;118.99
66312;HTU21D;53114;51.138;6.008;2023-11-19T05:19:07;13.20;118.99
66312;HTU21D;53114;51.138;6.008;2023-11-19T05:21:33;13.22;118.99
66312;HTU21D;53114;51.138;6.008;2023-11-19T05:24:00;13.21;118.99
66312;HTU21D;53114;51.138;6.008;2023-11-19T05:26:26;13.23;118.99
66312;HTU21D;53114;51.138;6.008;2023-11-19T05:28:54;13.21;118.99
66312;HTU21D;53114;51.138;6.008;2023-11-19T05:31:20;13.19;118.99
66312;HTU21D;53114;51.138;6.008;2023-11-19T05:33:46;13.12;118.99
66312;HTU21D;53114;51.138;6.008;2023-11-19T05:36:12;13.07;118.99
66312;HTU21D;53114;51.138;6.008;2023-11-19T05:38:38;13.01;118.99
66312;HTU21D;53114;51.138;6.008;2023-11-19T05:41:05;12.97;118.99
66312;HTU21D;53114;51.138;6.008;2023-11-19T05:43:34;12.90;118.99
66312;HTU21D;53114;51.138;6.008;2023-11-19T05:46:00;12.89;118.99
66312;HTU21D;53114;51.138;6.008;2023-11-19T05:48:30;12.87;118.99
66312;HTU21D;53114;51.138;6.008;2023-11-19T05:50:56;12.88;118.99
66312;HTU21D;53114;51.138;6.008;2023-11-19T05:53:22;12.82;118.99
66312;HTU21D;53114;51.138;6.008;2023-11-19T05:55:48;12.89;118.99
66312;HTU21D;53114;51.138;6.008;2023-11-19T05:58:23;12.92;118.99
66312;HTU21D;53114;51.138;6.008;2023-11-19T06:00:51;12.85;118.99
66312;HTU21D;53114;51.138;6.008;2023-11-19T06:03:17;12.80;118.99
66312;HTU21D;53114;51.138;6.008;2023-11-19T06:05:47;12.76;118.99
66312;HTU21D;53114;51.138;6.008;2023-11-19T06:08:14;12.73;118.99
66312;HTU21D;53114;51.138;6.008;2023-11-19T06:10:40;12.66;118.99
66312;HTU21D;53114;51.138;6.008;2023-11-19T06:13:07;12.63;118.99
66312;HTU21D;53114;51.138;6.008;2023-11-19T06:15:35;12.53;118.99
66312;HTU21D;53114;51.138;6.008;2023-11-19T06:18:02;12.53;118.99
66312;HTU21D;53114;51.138;6.008;2023-11-19T06:20:29;12.48;118.99
66312;HTU21D;53114;51.138;6.008;2023-11-19T06:22:56;12.43;118.99
66312;HTU21D;53114;51.138;6.008;2023-11-19T06:25:22;12.40;118.99
66312;HTU21D;53114;51.138;6.008;2023-11-19T06:27:50;12.36;118.99
66312;HTU21D;53114;51.138;6.008;2023-11-19T06:30:16;12.36;118.99
66312;HTU21D;53114;51.138;6.008;2023-11-19T06:32:43;12.37;118.99
66312;HTU21D;53114;51.138;6.008;2023-11-19T06:35:08;12.33;118.99
66312;HTU21D;53114;51.138;6.008;2023-11-19T06:37:40;12.32;118.99
66312;HTU21D;53114;51.138;6.008;2023-11-19T06:40:07;12.29;118.99
66312;HTU21D;53114;51.138;6.008;2023-11-19T06:42:38;12.27;118.99
66312;HTU21D;53114;51.138;6.008;2023-11-19T06:45:05;12.21;118.99
66312;HTU21D;53114;51.138;6.008;2023-11-19T06:47:32;12.22;118.99
66312;HTU21D;53114;51.138;6.008;2023-11-19T06:49:59;12.19;118.99
66312;HTU21D;53114;51.138;6.008;2023-11-19T06:52:25;12.13;118.99
66312;HTU21D;53114;51.138;6.008;2023-11-19T06:54:51;12.14;118.99
66312;HTU21D;53114;51.138;6.008;2023-11-19T06:57:17;12.13;118.99
66312;HTU21D;53114;51.138;6.008;2023-11-19T06:59:42;12.12;118.99
66312;HTU21D;53114;51.138;6.008;2023-11-19T07:02:09;12.11;118.99
66312;HTU21D;53114;51.138;6.008;2023-11-19T07:04:34;12.08;118.99
66312;HTU21D;53114;51.138;6.008;2023-11-19T07:07:00;12.10;118.99
66312;HTU21D;53114;51.138;6.008;2023-11-19T07:09:27;12.08;118.99
66312;HTU21D;53114;51.138;6.008;2023-11-19T07:11:53;12.11;118.99
66312;HTU21D;53114;51.138;6.008;2023-11-19T07:14:22;12.13;118.99
66312;HTU21D;53114;51.138;6.008;2023-11-19T07:16:51;12.10;118.99
66312;HTU21D;53114;51.138;6.008;2023-11-19T07:19:18;12.08;118.99
66312;HTU21D;53114;51.138;6.008;2023-11-19T07:21:44;12.07;118.99
66312;HTU21D;53114;51.138;6.008;2023-11-19T07:24:10;12.10;118.99
66312;HTU21D;53114;51.138;6.008;2023-11-19T07:26:46;12.11;118.99
66312;HTU21D;53114;51.138;6.008;2023-11-19T07:29:14;12.11;118.99
66312;HTU21D;53114;51.138;6.008;2023-11-19T07:31:45;12.12;118.99
66312;HTU21D;53114;51.138;6.008;2023-11-19T07:34:12;12.13;118.99
66312;HTU21D;53114;51.138;6.008;2023-11-19T07:36:39;12.14;118.99
66312;HTU21D;53114;51.138;6.008;2023-11-19T07:39:09;12.15;118.99
66312;HTU21D;53114;51.138;6.008;2023-11-19T07:41:38;12.18;118.99
66312;HTU21D;53114;51.138;6.008;2023-11-19T07:44:05;12.15;118.99
66312;HTU21D;53114;51.138;6.008;2023-11-19T07:46:32;12.22;118.99
66312;HTU21D;53114;51.138;6.008;2023-11-19T07:49:01;12.22;118.99
66312;HTU21D;53114;51.138;6.008;2023-11-19T07:51:28;12.25;118.99
66312;HTU21D;53114;51.138;6.008;2023-11-19T07:53:54;12.26;118.99
66312;HTU21D;53114;51.138;6.008;2023-11-19T07:56:20;12.27;118.99
66312;HTU21D;53114;51.138;6.008;2023-11-19T07:58:45;12.30;118.99
66312;HTU21D;53114;51.138;6.008;2023-11-19T08:01:11;12.36;118.99
66312;HTU21D;53114;51.138;6.008;2023-11-19T08:03:38;12.41;118.99
66312;HTU21D;53114;51.138;6.008;2023-11-19T08:06:04;12.44;118.99
66312;HTU21D;53114;51.138;6.008;2023-11-19T08:08:32;12.50;118.99
66312;HTU21D;53114;51.138;6.008;2023-11-19T08:11:00;12.52;118.99
66312;HTU21D;53114;51.138;6.008;2023-11-19T08:13:25;12.48;118.99
66312;HTU21D;53114;51.138;6.008;2023-11-19T08:15:52;12.58;118.99
66312;HTU21D;53114;51.138;6.008;2023-11-19T08:18:18;12.66;118.99
66312;HTU21D;53114;51.138;6.008;2023-11-19T08:20:44;12.69;118.99
66312;HTU21D;53114;51.138;6.008;2023-11-19T08:23:11;12.70;118.99
66312;HTU21D;53114;51.138;6.008;2023-11-19T08:25:37;12.76;118.99
66312;HTU21D;53114;51.138;6.008;2023-11-19T08:28:03;12.80;118.99
66312;HTU21D;53114;51.138;6.008;2023-11-19T08:30:32;12.87;118.99
66312;HTU21D;53114;51.138;6.008;2023-11-19T08:32:58;12.96;118.99
66312;HTU21D;53114;51.138;6.008;2023-11-19T08:35:29;12.97;118.99
66312;HTU21D;53114;51.138;6.008;2023-11-19T08:37:56;12.96;118.99
66312;HTU21D;53114;51.138;6.008;2023-11-19T08:40:24;13.03;118.99
66312;HTU21D;53114;51.138;6.008;2023-11-19T08:42:52;13.10;118.99
66312;HTU21D;53114;51.138;6.008;2023-11-19T08:45:18;13.10;118.99
66312;HTU21D;53114;51.138;6.008;2023-11-19T08:47:44;13.32;118.99
66312;HTU21D;53114;51.138;6.008;2023-11-19T08:50:11;13.49;118.99
66312;HTU21D;53114;51.138;6.008;2023-11-19T08:52:37;13.56;118.99
66312;HTU21D;53114;51.138;6.008;2023-11-19T08:55:04;13.60;118.99
66312;HTU21D;53114;51.138;6.008;2023-11-19T08:57:33;13.60;118.99
66312;HTU21D;53114;51.138;6.008;2023-11-19T08:59:59;13.67;118.99
66312;HTU21D;53114;51.138;6.008;2023-11-19T09:02:25;13.68;118.99
66312;HTU21D;53114;51.138;6.008;2023-11-19T09:04:51;13.58;118.99
66312;HTU21D;53114;51.138;6.008;2023-11-19T09:07:17;13.56;118.99
66312;HTU21D;53114;51.138;6.008;2023-11-19T09:09:43;13.67;118.99
66312;HTU21D;53114;51.138;6.008;2023-11-19T09:12:09;13.62;118.99
66312;HTU21D;53114;51.138;6.008;2023-11-19T09:14:35;13.65;118.99
66312;HTU21D;53114;51.138;6.008;2023-11-19T09:17:02;13.86;118.99
66312;HTU21D;53114;51.138;6.008;2023-11-19T09:19:27;14.05;118.99
66312;HTU21D;53114;51.138;6.008;2023-11-19T09:21:54;14.14;118.99
66312;HTU21D;53114;51.138;6.008;2023-11-19T09:24:20;14.20;118.99
66312;HTU21D;53114;51.138;6.008;2023-11-19T09:26:46;14.28;118.99
66312;HTU21D;53114;51.138;6.008;2023-11-19T09:29:12;14.34;117.67
66312;HTU21D;53114;51.138;6.008;2023-11-19T09:31:40;14.28;116.29
66312;HTU21D;53114;51.138;6.008;2023-11-19T09:34:06;14.19;117.00
66312;HTU21D;53114;51.138;6.008;2023-11-19T09:36:36;14.68;117.86
66312;HTU21D;53114;51.138;6.008;2023-11-19T09:39:02;15.12;109.30
66312;HTU21D;53114;51.138;6.008;2023-11-19T09:41:30;15.45;103.07
66312;HTU21D;53114;51.138;6.008;2023-11-19T09:43:56;15.22;99.22
66312;HTU21D;53114;51.138;6.008;2023-11-19T09:46:22;14.85;101.26
66312;HTU21D;53114;51.138;6.008;2023-11-19T09:48:53;14.68;104.56
66312;HTU21D;53114;51.138;6.008;2023-11-19T09:51:20;14.45;104.69
66312;HTU21D;53114;51.138;6.008;2023-11-19T09:53:47;14.32;107.37
66312;HTU21D;53114;51.138;6.008;2023-11-19T09:56:14;14.30;108.61
66312;HTU21D;53114;51.138;6.008;2023-11-19T09:58:42;14.39;109.72
66312;HTU21D;53114;51.138;6.008;2023-11-19T10:01:08;14.41;108.57
66312;HTU21D;53114;51.138;6.008;2023-11-19T10:03:39;14.35;105.47
66312;HTU21D;53114;51.138;6.008;2023-11-19T10:06:07;14.26;106.96
66312;HTU21D;53114;51.138;6.008;2023-11-19T10:08:34;14.18;106.08
66312;HTU21D;53114;51.138;6.008;2023-11-19T10:11:02;14.11;109.84
66312;HTU21D;53114;51.138;6.008;2023-11-19T10:13:29;14.09;109.88
66312;HTU21D;53114;51.138;6.008;2023-11-19T10:15:58;14.22;109.08
66312;HTU21D;53114;51.138;6.008;2023-11-19T10:18:25;14.25;107.05
66312;HTU21D;53114;51.138;6.008;2023-11-19T10:20:52;14.29;108.28
66312;HTU21D;53114;51.138;6.008;2023-11-19T10:23:19;14.34;106.37
66312;HTU21D;53114;51.138;6.008;2023-11-19T10:25:45;14.34;106.29
66312;HTU21D;53114;51.138;6.008;2023-11-19T10:28:11;14.32;105.24
66312;HTU21D;53114;51.138;6.008;2023-11-19T10:30:36;14.30;106.98
66312;HTU21D;53114;51.138;6.008;2023-11-19T10:35:29;14.35;103.73
66312;HTU21D;53114;51.138;6.008;2023-11-19T10:37:55;14.29;103.07
66312;HTU21D;53114;51.138;6.008;2023-11-19T10:40:21;14.28;103.18
66312;HTU21D;53114;51.138;6.008;2023-11-19T10:42:47;14.34;105.65
66312;HTU21D;53114;51.138;6.008;2023-11-19T10:45:23;14.58;107.19
66312;HTU21D;53114;51.138;6.008;2023-11-19T10:47:51;14.95;103.22
66312;HTU21D;53114;51.138;6.008;2023-11-19T10:50:18;15.19;96.10
66312;HTU21D;53114;51.138;6.008;2023-11-19T10:52:47;15.12;95.75
66312;HTU21D;53114;51.138;6.008;2023-11-19T10:55:18;14.94;97.74
66312;HTU21D;53114;51.138;6.008;2023-11-19T10:57:47;14.88;98.71
66312;HTU21D;53114;51.138;6.008;2023-11-19T11:00:19;14.83;100.06
66312;HTU21D;53114;51.138;6.008;2023-11-19T11:02:51;14.80;99.98
66312;HTU21D;53114;51.138;6.008;2023-11-19T11:05:22;14.63;99.90
66312;HTU21D;53114;51.138;6.008;2023-11-19T11:07:49;14.49;101.33
66312;HTU21D;53114;51.138;6.008;2023-11-19T11:10:18;14.38;106.03
66312;HTU21D;53114;51.138;6.008;2023-11-19T11:12:48;14.44;108.39
66312;HTU21D;53114;51.138;6.008;2023-11-19T11:15:20;14.66;102.87
66312;HTU21D;53114;51.138;6.008;2023-11-19T11:17:47;14.78;98.85
66312;HTU21D;53114;51.138;6.008;2023-11-19T11:20:14;14.93;100.77
66312;HTU21D;53114;51.138;6.008;2023-11-19T11:26:42;15.43;90.01
66312;HTU21D;53114;51.138;6.008;2023-11-19T11:29:03;15.42;92.40
66312;HTU21D;53114;51.138;6.008;2023-11-19T11:31:54;15.45;90.69
66312;HTU21D;53114;51.138;6.008;2023-11-19T11:37:19;15.75;89.26
66312;HTU21D;53114;51.138;6.008;2023-11-19T11:39:50;15.66;88.10
66312;HTU21D;53114;51.138;6.008;2023-11-19T11:45:08;15.29;91.31
66312;HTU21D;53114;51.138;6.008;2023-11-19T11:50:15;15.08;92.81
66312;HTU21D;53114;51.138;6.008;2023-11-19T11:57:57;14.84;94.37
66312;HTU21D;53114;51.138;6.008;2023-11-19T12:02:57;14.43;102.44
66312;HTU21D;53114;51.138;6.008;2023-11-19T12:05:24;14.19;105.37
66312;HTU21D;53114;51.138;6.008;2023-11-19T12:08:00;14.11;108.35
66312;HTU21D;53114;51.138;6.008;2023-11-19T12:10:31;14.11;109.20
66312;HTU21D;53114;51.138;6.008;2023-11-19T12:13:02;14.18;108.75
66312;HTU21D;53114;51.138;6.008;2023-11-19T12:15:30;14.22;109.03
66312;HTU21D;53114;51.138;6.008;2023-11-19T12:17:56;14.36;109.43
66312;HTU21D;53114;51.138;6.008;2023-11-19T12:20:26;14.45;105.92
66312;HTU21D;53114;51.138;6.008;2023-11-19T12:22:53;14.40;102.84
66312;HTU21D;53114;51.138;6.008;2023-11-19T12:25:20;14.33;104.85
66312;HTU21D;53114;51.138;6.008;2023-11-19T12:27:51;14.25;104.47
66312;HTU21D;53114;51.138;6.008;2023-11-19T12:30:25;14.25;102.40
66312;HTU21D;53114;51.138;6.008;2023-11-19T12:32:52;14.26;104.76
66312;HTU21D;53114;51.138;6.008;2023-11-19T12:35:22;14.28;105.66
66312;HTU21D;53114;51.138;6.008;2023-11-19T12:37:51;14.25;105.26
66312;HTU21D;53114;51.138;6.008;2023-11-19T12:40:24;14.24;105.63
66312;HTU21D;53114;51.138;6.008;2023-11-19T12:42:52;14.25;106.15
66312;HTU21D;53114;51.138;6.008;2023-11-19T12:45:24;14.25;103.39
66312;HTU21D;53114;51.138;6.008;2023-11-19T12:48:07;14.29;104.35
66312;HTU21D;53114;51.138;6.008;2023-11-19T12:50:56;14.29;104.44
66312;HTU21D;53114;51.138;6.008;2023-11-19T12:53:25;14.25;104.47
66312;HTU21D;53114;51.138;6.008;2023-11-19T12:55:53;14.23;105.84
66312;HTU21D;53114;51.138;6.008;2023-11-19T12:58:31;14.26;105.29
66312;HTU21D;53114;51.138;6.008;2023-11-19T13:01:05;14.27;105.56
66312;HTU21D;53114;51.138;6.008;2023-11-19T13:03:33;14.27;104.53
66312;HTU21D;53114;51.138;6.008;2023-11-19T13:06:07;14.34;105.27
66312;HTU21D;53114;51.138;6.008;2023-11-19T13:11:04;14.48;104.24
66312;HTU21D;53114;51.138;6.008;2023-11-19T13:13:30;14.57;102.72
66312;HTU21D;53114;51.138;6.008;2023-11-19T13:16:03;14.60;98.00
66312;HTU21D;53114;51.138;6.008;2023-11-19T13:18:31;14.55;98.23
66312;HTU21D;53114;51.138;6.008;2023-11-19T13:20:57;14.55;97.25
66312;HTU21D;53114;51.138;6.008;2023-11-19T13:23:23;14.54;95.52
66312;HTU21D;53114;51.138;6.008;2023-11-19T13:25:49;14.52;95.52
66312;HTU21D;53114;51.138;6.008;2023-11-19T13:28:15;14.48;95.26
66312;HTU21D;53114;51.138;6.008;2023-11-19T13:30:41;14.44;94.54
66312;HTU21D;53114;51.138;6.008;2023-11-19T13:33:09;14.42;97.04
66312;HTU21D;53114;51.138;6.008;2023-11-19T13:35:38;14.35;97.52
66312;HTU21D;53114;51.138;6.008;2023-11-19T13:38:06;14.26;99.32
66312;HTU21D;53114;51.138;6.008;2023-11-19T13:40:34;14.15;100.78
66312;HTU21D;53114;51.138;6.008;2023-11-19T13:43:05;14.08;101.18
66312;HTU21D;53114;51.138;6.008;2023-11-19T13:45:31;14.00;102.76
66312;HTU21D;53114;51.138;6.008;2023-11-19T13:47:57;13.92;105.11
66312;HTU21D;53114;51.138;6.008;2023-11-19T13:50:23;13.79;107.71
66312;HTU21D;53114;51.138;6.008;2023-11-19T13:52:51;13.74;109.84
66312;HTU21D;53114;51.138;6.008;2023-11-19T13:55:17;13.67;111.41
66312;HTU21D;53114;51.138;6.008;2023-11-19T13:57:43;13.63;113.35
66312;HTU21D;53114;51.138;6.008;2023-11-19T14:00:11;13.54;115.64
66312;HTU21D;53114;51.138;6.008;2023-11-19T14:02:48;13.56;115.73
66312;HTU21D;53114;51.138;6.008;2023-11-19T14:05:15;13.63;116.80
66312;HTU21D;53114;51.138;6.008;2023-11-19T14:07:43;13.76;116.87
66312;HTU21D;53114;51.138;6.008;2023-11-19T14:10:10;13.88;115.04
66312;HTU21D;53114;51.138;6.008;2023-11-19T14:12:39;13.94;110.92
66312;HTU21D;53114;51.138;6.008;2023-11-19T14:15:06;13.95;110.92
66312;HTU21D;53114;51.138;6.008;2023-11-19T14:17:33;13.93;109.81
66312;HTU21D;53114;51.138;6.008;2023-11-19T14:20:00;13.89;107.23
66312;HTU21D;53114;51.138;6.008;2023-11-19T14:22:26;13.92;107.59
66312;HTU21D;53114;51.138;6.008;2023-11-19T14:24:52;13.92;106.54
66312;HTU21D;53114;51.138;6.008;2023-11-19T14:27:18;13.94;106.10
66312;HTU21D;53114;51.138;6.008;2023-11-19T14:29:44;13.92;103.57
66312;HTU21D;53114;51.138;6.008;2023-11-19T14:32:11;13.81;107.30
66312;HTU21D;53114;51.138;6.008;2023-11-19T14:34:37;13.66;110.60
66312;HTU21D;53114;51.138;6.008;2023-11-19T14:37:03;13.52;113.48
66312;HTU21D;53114;51.138;6.008;2023-11-19T14:39:29;13.41;116.73
66312;HTU21D;53114;51.138;6.008;2023-11-19T14:41:59;13.29;118.99
66312;HTU21D;53114;51.138;6.008;2023-11-19T14:44:32;13.19;118.99
66312;HTU21D;53114;51.138;6.008;2023-11-19T14:46:58;13.10;118.99
66312;HTU21D;53114;51.138;6.008;2023-11-19T14:49:24;13.08;118.99
66312;HTU21D;53114;51.138;6.008;2023-11-19T14:51:51;13.04;118.99
66312;HTU21D;53114;51.138;6.008;2023-11-19T14:54:17;13.02;118.99
66312;HTU21D;53114;51.138;6.008;2023-11-19T14:56:43;12.99;118.99
66312;HTU21D;53114;51.138;6.008;2023-11-19T14:59:09;13.00;118.99
66312;HTU21D;53114;51.138;6.008;2023-11-19T15:01:36;13.01;118.99
66312;HTU21D;53114;51.138;6.008;2023-11-19T15:04:08;12.99;118.99
66312;HTU21D;53114;51.138;6.008;2023-11-19T15:06:48;12.99;118.99
66312;HTU21D;53114;51.138;6.008;2023-11-19T15:09:14;13.02;118.99
66312;HTU21D;53114;51.138;6.008;2023-11-19T15:11:46;13.07;118.99
66312;HTU21D;53114;51.138;6.008;2023-11-19T15:14:15;13.12;118.99
66312;HTU21D;53114;51.138;6.008;2023-11-19T15:16:46;13.11;118.99
66312;HTU21D;53114;51.138;6.008;2023-11-19T15:19:15;13.17;118.99
66312;HTU21D;53114;51.138;6.008;2023-11-19T15:21:41;13.16;118.99
66312;HTU21D;53114;51.138;6.008;2023-11-19T15:24:10;13.19;118.99
66312;HTU21D;53114;51.138;6.008;2023-11-19T15:26:37;13.24;118.99
66312;HTU21D;53114;51.138;6.008;2023-11-19T15:29:04;13.23;118.99
66312;HTU21D;53114;51.138;6.008;2023-11-19T15:31:31;13.26;118.82